CheckWX is a tool to help pilots better visualize weather data.  It is not intended as a substitute for an official pre-flight weather briefing.

06:35:07 UTC

UMMG METAR
Hrodna Airport
Hrodna, Belarus
Current

35 mins ago

UMMG 290600Z 01006G09MPS CAVOK 11/07 Q1021 NOSIG
Observed
May-29 @ 06:00 UTC
Wind
  • 010° at 12 KTS
  • Gusting to 17 KTS
Visibility
10,000+ meters
Flight Rules
VFR
Cloud Levels
  • Clear skies
Temperature
11°C / 52°F
Dewpoint
C / 45°F
Humidity
77%
Altimeter
30.15" Hg
Pressure
1020.92 hPa
Previous

2 hours ago

UMMG 290500Z 35006G09MPS CAVOK 10/06 Q1021 NOSIG
Observed
May-29 @ 05:00 UTC
Wind
  • 350° at 12 KTS
  • Gusting to 17 KTS
Visibility
10,000+ meters
Flight Rules
VFR
Cloud Levels
  • Clear skies
Temperature
10°C / 50°F
Dewpoint
C / 43°F
Humidity
76%
Altimeter
30.15" Hg
Pressure
1020.92 hPa
Previous

3 hours ago

UMMG 290400Z 35004G07MPS CAVOK 08/05 Q1021 NOSIG
Observed
May-29 @ 04:00 UTC
Wind
  • 350° at 8 KTS
  • Gusting to 14 KTS
Visibility
10,000+ meters
Flight Rules
VFR
Cloud Levels
  • Clear skies
Temperature
C / 46°F
Dewpoint
C / 41°F
Humidity
82%
Altimeter
30.15" Hg
Pressure
1020.92 hPa